createdAt,value
2019-01-11T00:14:30.524Z,-0.50
2019-01-11T00:44:09.352Z,-0.50
2019-01-11T00:46:13.189Z,-0.50
2019-01-11T00:59:56.998Z,-0.50
2019-01-11T01:02:02.076Z,-0.50
2019-01-11T01:14:57.043Z,-0.50
2019-01-11T01:29:39.247Z,-0.50
2019-01-11T01:34:01.667Z,-0.50
2019-01-11T01:40:59.548Z,-0.50
2019-01-11T01:43:05.020Z,-0.50
2019-01-11T02:32:54.706Z,-0.40
2019-01-11T03:11:48.205Z,-0.40
2019-01-11T03:23:38.689Z,-0.30
2019-01-11T03:38:32.662Z,-0.30
2019-01-11T03:55:09.134Z,-0.30
2019-01-11T04:11:26.894Z,-0.20
2019-01-11T04:13:30.837Z,-0.20
2019-01-11T04:33:20.252Z,-0.20
2019-01-11T04:56:57.666Z,-0.20
2019-01-11T05:01:25.666Z,-0.20
2019-01-11T05:11:08.951Z,-0.10
2019-01-11T05:27:01.644Z,-0.10
2019-01-11T05:40:16.298Z,0.00
2019-01-11T06:08:50.071Z,0.10
2019-01-11T06:22:56.933Z,0.00
2019-01-11T06:25:00.624Z,0.00
2019-01-11T06:41:44.503Z,0.00
2019-01-11T06:43:49.767Z,0.10
2019-01-11T07:12:12.626Z,0.10
2019-01-11T07:19:35.945Z,0.20
2019-01-11T07:21:41.579Z,0.10
2019-01-11T07:23:45.151Z,0.10
2019-01-11T07:25:48.773Z,0.10
2019-01-11T07:27:56.848Z,0.10
2019-01-11T07:30:00.591Z,0.10
2019-01-11T07:32:04.659Z,0.10
2019-01-11T07:34:08.465Z,0.10
2019-01-11T07:36:13.824Z,0.10
2019-01-11T07:38:17.432Z,0.10
2019-01-11T07:40:21.266Z,0.00
2019-01-11T07:42:26.551Z,0.10
2019-01-11T07:44:30.781Z,0.10
2019-01-11T07:46:34.437Z,0.00
2019-01-11T07:48:39.254Z,0.10
2019-01-11T07:50:49.166Z,0.20
2019-01-11T07:52:48.357Z,0.10
2019-01-11T07:54:52.135Z,0.10
2019-01-11T07:56:55.878Z,0.10
2019-01-11T07:58:59.707Z,0.20
2019-01-11T08:01:03.494Z,0.10
2019-01-11T08:03:07.222Z,0.10
2019-01-11T08:05:11.317Z,0.10
2019-01-11T08:07:15.041Z,0.10
2019-01-11T08:09:18.804Z,0.10
2019-01-11T08:11:22.590Z,0.10
2019-01-11T08:13:26.299Z,0.00
2019-01-11T08:15:30.098Z,0.00
2019-01-11T08:17:33.871Z,0.00
2019-01-11T08:19:37.502Z,0.00
2019-01-11T08:21:41.268Z,0.00
2019-01-11T08:23:44.997Z,0.00
2019-01-11T08:25:48.737Z,0.00
2019-01-11T08:27:52.534Z,0.00
2019-01-11T08:29:56.397Z,0.00
2019-01-11T08:32:00.190Z,0.10
2019-01-11T08:34:04.391Z,0.10
2019-01-11T08:36:08.156Z,0.10
2019-01-11T08:38:12.135Z,0.10
2019-01-11T08:40:15.860Z,0.10
2019-01-11T08:42:19.734Z,0.20
2019-01-11T08:44:23.384Z,0.20
2019-01-11T08:46:27.215Z,0.20
2019-01-11T08:48:30.949Z,0.20
2019-01-11T08:50:34.788Z,0.20
2019-01-11T08:52:38.467Z,0.20
2019-01-11T08:54:42.259Z,0.20
2019-01-11T08:56:46.054Z,0.20
2019-01-11T08:58:50.694Z,0.20
2019-01-11T09:00:54.572Z,0.20
2019-01-11T09:02:58.382Z,0.30
2019-01-11T09:05:02.108Z,0.30
2019-01-11T09:07:06.065Z,0.30
2019-01-11T09:09:09.981Z,0.40
2019-01-11T09:11:13.757Z,0.30
2019-01-11T09:13:17.561Z,0.40
2019-01-11T09:15:21.366Z,0.40
2019-01-11T09:17:25.117Z,0.40
2019-01-11T09:19:28.848Z,0.50
2019-01-11T09:21:34.114Z,0.40
2019-01-11T09:23:37.821Z,0.40
2019-01-11T09:25:41.591Z,0.40
2019-01-11T09:27:45.290Z,0.40
2019-01-11T09:29:49.161Z,0.40
2019-01-11T09:31:52.965Z,0.40
2019-01-11T09:33:56.751Z,0.40
2019-01-11T09:36:00.437Z,0.50
2019-01-11T09:38:04.237Z,0.50
2019-01-11T09:40:09.248Z,0.40
2019-01-11T09:42:14.203Z,0.50
2019-01-11T09:44:17.881Z,0.50
2019-01-11T09:46:21.647Z,0.60
2019-01-11T09:48:25.459Z,0.60
2019-01-11T09:50:29.182Z,0.60
2019-01-11T09:52:32.885Z,0.60
2019-01-11T09:54:36.615Z,0.60
2019-01-11T09:56:40.361Z,0.60
2019-01-11T09:58:44.062Z,0.60
2019-01-11T10:00:48.051Z,0.60
2019-01-11T10:02:59.570Z,0.60
2019-01-11T10:05:04.397Z,0.60
2019-01-11T10:07:12.431Z,0.50
2019-01-11T10:09:16.145Z,0.60
2019-01-11T10:11:19.934Z,0.60
2019-01-11T10:13:23.741Z,0.60
2019-01-11T10:15:27.855Z,0.60
2019-01-11T10:17:31.499Z,0.60
2019-01-11T10:19:35.748Z,0.70
2019-01-11T10:21:40.165Z,0.70
2019-01-11T10:23:43.953Z,0.70
2019-01-11T10:25:47.673Z,0.70
2019-01-11T10:27:51.465Z,0.70
2019-01-11T10:29:55.157Z,0.70
2019-01-11T10:31:58.896Z,0.70
2019-01-11T10:34:02.724Z,0.70
2019-01-11T10:36:06.586Z,0.70
2019-01-11T10:38:10.317Z,0.70
2019-01-11T10:40:16.156Z,0.70
2019-01-11T10:42:20.222Z,0.80
2019-01-11T10:44:23.969Z,0.80
2019-01-11T10:46:29.357Z,0.80
2019-01-11T10:48:32.979Z,0.80
2019-01-11T10:50:36.766Z,0.80
2019-01-11T10:52:40.576Z,0.70
2019-01-11T10:54:44.413Z,0.70
2019-01-11T10:56:48.144Z,0.70
2019-01-11T10:58:53.438Z,0.70
2019-01-11T11:00:57.123Z,0.70
2019-01-11T11:03:01.675Z,0.70
2019-01-11T11:05:06.302Z,0.70
2019-01-11T11:07:10.079Z,0.60
2019-01-11T11:09:13.732Z,0.60
2019-01-11T11:11:17.508Z,0.70
2019-01-11T11:13:21.098Z,0.70
2019-01-11T11:15:24.925Z,0.60
2019-01-11T11:17:28.752Z,0.60
2019-01-11T11:19:32.549Z,0.70
2019-01-11T11:21:36.312Z,0.60
2019-01-11T11:23:39.997Z,0.70
2019-01-11T11:25:43.852Z,0.70
2019-01-11T11:27:47.600Z,0.70
2019-01-11T11:29:51.406Z,0.70
2019-01-11T11:31:54.984Z,0.70
2019-01-11T11:33:58.692Z,0.70
2019-01-11T11:36:04.200Z,0.60
2019-01-11T11:38:07.881Z,0.70
2019-01-11T11:40:11.984Z,0.70
2019-01-11T11:42:16.879Z,0.70
2019-01-11T11:44:20.696Z,0.70
2019-01-11T11:46:24.510Z,0.70
2019-01-11T11:48:28.286Z,0.80
2019-01-11T11:50:32.168Z,0.70
2019-01-11T11:52:37.098Z,0.70
2019-01-11T11:54:40.913Z,0.80
2019-01-11T11:56:44.703Z,0.70
2019-01-11T11:58:48.542Z,0.80
2019-01-11T12:00:52.314Z,0.80
2019-01-11T12:02:56.057Z,0.90
2019-01-11T12:04:59.735Z,0.90
2019-01-11T12:07:07.627Z,0.90
2019-01-11T12:09:09.976Z,1.00
2019-01-11T12:11:13.757Z,1.00
2019-01-11T12:13:17.481Z,1.00
2019-01-11T12:15:21.157Z,1.00
2019-01-11T12:17:24.954Z,1.00
2019-01-11T12:19:28.628Z,1.00
2019-01-11T12:21:32.617Z,1.00
2019-01-11T12:23:36.446Z,1.00
2019-01-11T12:28:03.134Z,1.00
2019-01-11T12:29:56.512Z,1.00
2019-01-11T12:32:01.022Z,1.00
2019-01-11T12:34:04.938Z,1.10
2019-01-11T12:36:08.675Z,1.10
2019-01-11T12:38:15.215Z,1.10
2019-01-11T12:40:19.056Z,1.10
2019-01-11T12:42:22.767Z,1.00
2019-01-11T12:44:28.152Z,1.00
2019-01-11T12:46:31.863Z,1.10
2019-01-11T12:48:35.506Z,1.10
2019-01-11T12:50:39.254Z,1.10
2019-01-11T12:52:43.022Z,1.10
2019-01-11T12:54:46.752Z,1.10
2019-01-11T12:56:50.571Z,1.10
2019-01-11T12:58:54.349Z,1.10
2019-01-11T13:00:58.086Z,1.10
2019-01-11T13:03:01.719Z,1.10
2019-01-11T13:05:08.052Z,1.10
2019-01-11T13:07:11.839Z,1.10
2019-01-11T13:09:15.579Z,1.10
2019-01-11T13:11:19.258Z,1.10
2019-01-11T13:13:23.059Z,1.20
2019-01-11T13:15:26.856Z,1.10
2019-01-11T13:17:30.889Z,1.20
2019-01-11T13:19:34.643Z,1.20
2019-01-11T13:21:38.325Z,1.20
2019-01-11T13:23:43.735Z,1.20
2019-01-11T13:25:47.453Z,1.20
2019-01-11T13:27:51.372Z,1.20
2019-01-11T13:29:55.137Z,1.20
2019-01-11T13:31:58.967Z,1.10
2019-01-11T13:34:02.744Z,1.20
2019-01-11T13:36:08.131Z,1.10
2019-01-11T13:38:11.996Z,1.20
2019-01-11T13:40:18.232Z,1.20
2019-01-11T13:42:21.983Z,1.20
2019-01-11T13:44:26.081Z,1.20
2019-01-11T13:46:30.312Z,1.20
2019-01-11T13:48:34.485Z,1.20
2019-01-11T13:50:39.213Z,1.10
2019-01-11T13:52:42.907Z,1.20
2019-01-11T13:54:46.772Z,1.10
2019-01-11T13:56:50.663Z,1.10
2019-01-11T13:58:54.320Z,1.10
2019-01-11T14:00:58.127Z,1.20
2019-01-11T14:03:01.937Z,1.10
2019-01-11T14:05:07.714Z,1.10
2019-01-11T14:07:15.087Z,1.10
2019-01-11T14:09:19.225Z,1.10
2019-01-11T14:11:24.395Z,1.10
2019-01-11T14:13:28.371Z,1.10
2019-01-11T14:15:34.558Z,1.10
2019-01-11T14:17:38.438Z,1.10
2019-01-11T14:19:42.750Z,1.20
2019-01-11T14:21:46.564Z,1.20
2019-01-11T14:23:50.365Z,1.20
2019-01-11T14:25:54.295Z,1.10
2019-01-11T14:27:59.398Z,1.20
2019-01-11T14:30:03.473Z,1.20
2019-01-11T14:32:07.235Z,1.20
2019-01-11T14:34:15.051Z,1.20
2019-01-11T14:36:18.805Z,1.10
2019-01-11T14:38:22.584Z,1.10
2019-01-11T14:40:27.780Z,1.10
2019-01-11T14:42:31.527Z,1.10
2019-01-11T14:44:35.339Z,1.10
2019-01-11T14:46:39.088Z,1.10
2019-01-11T14:48:44.471Z,1.10
2019-01-11T14:50:48.242Z,1.10
2019-01-11T14:52:51.901Z,1.20
2019-01-11T14:54:55.620Z,1.10
2019-01-11T14:56:59.328Z,1.10
2019-01-11T14:59:03.179Z,1.10
2019-01-11T15:01:07.025Z,1.10
2019-01-11T15:03:12.351Z,1.00
2019-01-11T15:05:17.212Z,1.10
2019-01-11T15:07:20.853Z,1.10
2019-01-11T15:09:24.643Z,1.00
2019-01-11T15:11:29.343Z,1.10
2019-01-11T15:13:33.198Z,1.00
2019-01-11T15:15:37.592Z,1.10
2019-01-11T15:17:42.888Z,1.10
2019-01-11T15:19:46.735Z,1.10
2019-01-11T15:21:50.553Z,1.10
2019-01-11T15:23:54.333Z,1.10
2019-01-11T15:26:02.417Z,1.10
2019-01-11T15:28:06.161Z,1.10
2019-01-11T15:30:14.538Z,1.10
2019-01-11T15:32:19.957Z,1.10
2019-01-11T15:34:23.812Z,1.10
2019-01-11T15:36:27.438Z,1.00
2019-01-11T15:38:31.188Z,1.10
2019-01-11T15:40:36.933Z,1.10
2019-01-11T15:42:40.237Z,1.00
2019-01-11T15:44:44.001Z,1.00
2019-01-11T15:46:47.773Z,1.00
2019-01-11T15:48:51.411Z,1.00
2019-01-11T15:50:55.175Z,1.00
2019-01-11T15:53:00.542Z,1.00
2019-01-11T15:55:09.616Z,1.00
2019-01-11T15:57:13.355Z,1.00
2019-01-11T15:59:18.687Z,1.00
2019-01-11T16:01:23.523Z,1.00
2019-01-11T16:03:27.368Z,1.10
2019-01-11T16:05:31.093Z,1.10
2019-01-11T16:07:34.726Z,1.10
2019-01-11T16:09:57.456Z,1.10
2019-01-11T16:12:09.988Z,1.10
2019-01-11T16:14:19.479Z,1.10
2019-01-11T16:16:23.501Z,1.10
2019-01-11T16:18:27.264Z,1.10
2019-01-11T16:20:31.070Z,1.10
2019-01-11T16:22:39.586Z,1.20
2019-01-11T16:24:41.360Z,1.20
2019-01-11T16:26:45.074Z,1.20
2019-01-11T16:28:48.839Z,1.20
2019-01-11T16:30:52.534Z,1.10
2019-01-11T16:32:56.411Z,1.10
2019-01-11T16:35:00.177Z,1.10
2019-01-11T16:37:03.926Z,1.10
2019-01-11T16:39:08.815Z,1.10
2019-01-11T16:41:12.510Z,1.10
2019-01-11T16:43:17.317Z,1.20
2019-01-11T16:45:21.166Z,1.20
2019-01-11T16:47:24.909Z,1.10
2019-01-11T16:49:28.670Z,1.20
2019-01-11T16:51:32.330Z,1.10
2019-01-11T16:53:36.047Z,1.10
2019-01-11T16:55:39.721Z,1.20
2019-01-11T16:57:43.365Z,1.10
2019-01-11T16:59:47.043Z,1.10
2019-01-11T17:01:50.678Z,1.10
2019-01-11T17:03:56.312Z,1.10
2019-01-11T17:05:59.991Z,1.10
2019-01-11T17:08:03.858Z,1.10
2019-01-11T17:10:10.387Z,1.10
2019-01-11T17:12:14.128Z,1.10
2019-01-11T17:14:17.914Z,1.10
2019-01-11T17:16:21.870Z,1.10
2019-01-11T17:18:25.766Z,1.10
2019-01-11T17:20:29.705Z,1.10
2019-01-11T17:22:35.795Z,1.10
2019-01-11T17:24:39.464Z,1.10
2019-01-11T17:26:43.248Z,1.10
2019-01-11T17:28:47.013Z,1.10
2019-01-11T17:30:50.763Z,1.10
2019-01-11T17:32:54.977Z,1.10
2019-01-11T17:34:58.708Z,1.10
2019-01-11T17:37:02.766Z,1.20
2019-01-11T17:39:07.665Z,1.20
2019-01-11T17:41:11.718Z,1.10
2019-01-11T17:43:15.498Z,1.10
2019-01-11T17:45:19.200Z,1.20
2019-01-11T17:47:23.084Z,1.10
2019-01-11T17:49:26.846Z,1.20
2019-01-11T17:51:30.886Z,1.20
2019-01-11T17:53:34.618Z,1.20
2019-01-11T17:55:38.432Z,1.20
2019-01-11T17:57:42.097Z,1.10
2019-01-11T17:59:45.807Z,1.10
2019-01-11T18:01:49.464Z,1.10
2019-01-11T18:03:53.169Z,1.10
2019-01-11T18:05:56.839Z,1.10
2019-01-11T18:08:00.498Z,1.10
2019-01-11T18:10:06.477Z,1.10
2019-01-11T18:12:10.194Z,1.20
2019-01-11T18:14:13.979Z,1.20
2019-01-11T18:16:17.719Z,1.20
2019-01-11T18:18:21.483Z,1.20
2019-01-11T18:20:29.519Z,1.20
2019-01-11T18:22:33.313Z,1.20
2019-01-11T18:24:37.214Z,1.20
2019-01-11T18:26:40.948Z,1.20
2019-01-11T18:28:44.683Z,1.20
2019-01-11T18:30:48.459Z,1.10
2019-01-11T18:32:52.586Z,1.20
2019-01-11T18:34:56.855Z,1.20
2019-01-11T18:37:01.236Z,1.20
2019-01-11T18:39:08.170Z,1.20
2019-01-11T18:41:12.030Z,1.20
2019-01-11T18:43:15.701Z,1.20
2019-01-11T18:45:19.558Z,1.20
2019-01-11T18:47:23.912Z,1.30
2019-01-11T18:49:28.063Z,1.20
2019-01-11T18:51:32.405Z,1.20
2019-01-11T18:53:36.391Z,1.20
2019-01-11T18:55:40.598Z,1.30
2019-01-11T18:57:45.404Z,1.30
2019-01-11T18:59:49.579Z,1.20
2019-01-11T19:01:53.625Z,1.20
2019-01-11T19:03:57.415Z,1.20
2019-01-11T19:06:01.182Z,1.20
2019-01-11T19:08:04.926Z,1.20
2019-01-11T19:10:17.078Z,1.20
2019-01-11T19:12:21.084Z,1.20
2019-01-11T19:14:24.802Z,1.20
2019-01-11T19:16:28.513Z,1.20
2019-01-11T19:18:32.110Z,1.20
2019-01-11T19:20:36.261Z,1.20
2019-01-11T19:22:40.044Z,1.30
2019-01-11T19:24:43.842Z,1.30
2019-01-11T19:26:47.601Z,1.20
2019-01-11T19:28:51.334Z,1.20
2019-01-11T19:30:55.109Z,1.30
2019-01-11T19:32:58.897Z,1.30
2019-01-11T19:35:02.758Z,1.30
2019-01-11T19:37:06.601Z,1.30
2019-01-11T19:39:10.509Z,1.30
2019-01-11T19:41:14.331Z,1.30
2019-01-11T19:43:18.622Z,1.30
2019-01-11T19:45:22.755Z,1.30
2019-01-11T19:47:26.576Z,1.30
2019-01-11T19:49:30.358Z,1.30
2019-01-11T19:51:34.309Z,1.30
2019-01-11T19:53:38.099Z,1.40
2019-01-11T19:55:42.327Z,1.40
2019-01-11T19:57:46.122Z,1.30
2019-01-11T19:59:49.811Z,1.40
2019-01-11T20:01:53.756Z,1.40
2019-01-11T20:03:57.398Z,1.40
2019-01-11T20:06:01.252Z,1.40
2019-01-11T20:08:05.115Z,1.40
2019-01-11T20:10:11.885Z,1.40
2019-01-11T20:12:15.742Z,1.40
2019-01-11T20:14:19.463Z,1.50
2019-01-11T20:16:23.291Z,1.50
2019-01-11T20:18:27.025Z,1.50
2019-01-11T20:20:30.808Z,1.50
2019-01-11T20:22:34.658Z,1.50
2019-01-11T20:24:39.412Z,1.50
2019-01-11T20:26:43.345Z,1.50
2019-01-11T20:28:47.029Z,1.50
2019-01-11T20:30:50.711Z,1.50
2019-01-11T20:32:54.692Z,1.50
2019-01-11T20:34:58.429Z,1.50
2019-01-11T20:37:04.648Z,1.50
2019-01-11T20:39:09.696Z,1.40
2019-01-11T20:41:13.491Z,1.50
2019-01-11T20:43:17.317Z,1.50
2019-01-11T20:45:21.651Z,1.50
2019-01-11T20:47:25.247Z,1.50
2019-01-11T20:49:28.993Z,1.50
2019-01-11T20:51:32.673Z,1.50
2019-01-11T20:53:41.507Z,1.50
2019-01-11T20:55:41.830Z,1.50
2019-01-11T20:57:45.966Z,1.50
2019-01-11T20:59:49.779Z,1.50
2019-01-11T21:01:53.460Z,1.50
2019-01-11T21:03:57.244Z,1.50
2019-01-11T21:06:01.109Z,1.50
2019-01-11T21:08:05.061Z,1.60
2019-01-11T21:10:11.063Z,1.60
2019-01-11T21:12:14.845Z,1.60
2019-01-11T21:14:18.681Z,1.60
2019-01-11T21:16:22.628Z,1.60
2019-01-11T21:18:26.371Z,1.60
2019-01-11T21:20:30.009Z,1.70
2019-01-11T21:22:33.781Z,1.60
2019-01-11T21:24:37.511Z,1.60
2019-01-11T21:26:41.288Z,1.60
2019-01-11T21:28:45.001Z,1.60
2019-01-11T21:30:48.721Z,1.60
2019-01-11T21:32:52.743Z,1.60
2019-01-11T21:34:56.408Z,1.60
2019-01-11T21:37:00.036Z,1.60
2019-01-11T21:39:05.550Z,1.60
2019-01-11T21:41:09.277Z,1.60
2019-01-11T21:43:12.971Z,1.60
2019-01-11T21:45:17.616Z,1.60
2019-01-11T21:47:21.340Z,1.50
2019-01-11T21:49:24.954Z,1.60
2019-01-11T21:51:28.686Z,1.70
2019-01-11T21:53:32.564Z,1.70
2019-01-11T21:55:36.350Z,1.70
2019-01-11T21:57:40.090Z,1.70
2019-01-11T21:59:43.892Z,1.70
2019-01-11T22:01:47.554Z,1.70
2019-01-11T22:03:51.284Z,1.70
2019-01-11T22:05:55.015Z,1.70
2019-01-11T22:07:58.719Z,1.70
2019-01-11T22:10:02.563Z,1.70
2019-01-11T22:12:06.318Z,1.70
2019-01-11T22:14:10.116Z,1.70
2019-01-11T22:16:13.733Z,1.70
2019-01-11T22:18:17.495Z,1.70
2019-01-11T22:20:21.291Z,1.80
2019-01-11T22:22:24.904Z,1.70
2019-01-11T22:24:28.601Z,1.70
2019-01-11T22:26:32.333Z,1.80
2019-01-11T22:28:36.095Z,1.90
2019-01-11T22:30:39.767Z,1.90
2019-01-11T22:32:43.459Z,1.90
2019-01-11T22:34:47.142Z,1.80
2019-01-11T22:36:50.828Z,1.80
2019-01-11T22:38:54.566Z,1.80
2019-01-11T22:40:58.356Z,1.80
2019-01-11T22:43:02.057Z,1.70
2019-01-11T22:45:09.105Z,1.80
2019-01-11T22:47:13.299Z,1.80
2019-01-11T22:49:17.129Z,1.90
2019-01-11T22:51:20.788Z,1.90
2019-01-11T22:53:24.534Z,1.90
2019-01-11T22:55:28.373Z,1.90
2019-01-11T22:57:32.018Z,1.90
2019-01-11T22:59:35.810Z,1.90
2019-01-11T23:01:48.381Z,1.90
2019-01-11T23:03:52.055Z,1.90
2019-01-11T23:06:09.177Z,1.90
2019-01-11T23:08:15.049Z,1.90
2019-01-11T23:10:30.369Z,1.90
2019-01-11T23:12:37.173Z,1.90
2019-01-11T23:14:40.882Z,2.00
2019-01-11T23:16:44.803Z,2.00
2019-01-11T23:18:50.153Z,2.00
2019-01-11T23:20:53.997Z,1.90
2019-01-11T23:22:57.670Z,1.90
2019-01-11T23:25:01.437Z,1.90
2019-01-11T23:27:05.170Z,1.90
2019-01-11T23:29:08.822Z,1.90
2019-01-11T23:31:12.546Z,1.90
2019-01-11T23:33:16.213Z,1.90
2019-01-11T23:35:20.079Z,1.90
2019-01-11T23:37:23.916Z,2.00
2019-01-11T23:39:27.613Z,2.00
2019-01-11T23:41:31.321Z,2.00
2019-01-11T23:43:35.055Z,2.00
2019-01-11T23:45:38.929Z,1.90
2019-01-11T23:47:42.589Z,2.00
2019-01-11T23:49:46.327Z,2.00
2019-01-11T23:51:50.106Z,2.00
2019-01-11T23:53:54.003Z,2.00
2019-01-11T23:55:59.097Z,2.00
2019-01-11T23:58:02.742Z,2.00
